McIntire, Iowa
Current Conditions -  °F | °C
As of 4:35 PM on Monday 24 Nov 2014 (Local Time) from KAUM Reporting Station
Light Snow Light Snow  
Wind Chill: -5°   Ceiling: 4000
Heat Index: 16°   Visibility: 4mi
Dew Point: 10°   Wind: 31mph
Humidity: 79%   Direction: 300°WNW
Pressure: 29.64"   Gusts: 38mph
Location:  43.44°N, 92.59°W
Report Text: KAUM 242235Z AUTO 30027G33KT 4SM -SN SCT016 OVC040 M09/M12 A2964 RMK AO2
Loading
Personal Weather Stations






























Interactive Weather Map New forecast layout! Learn more

10-Day Weather Forecast

Advertisements
Track Severe Weather on mobile